createdAt,value
2022-12-29T00:00:10.615Z,10.40
2022-12-29T00:26:23.358Z,10.50
2022-12-29T00:29:09.875Z,10.50
2022-12-29T01:00:27.156Z,10.70
2022-12-29T01:15:13.024Z,10.80
2022-12-29T01:32:23.993Z,10.90
2022-12-29T01:34:50.645Z,10.90
2022-12-29T01:39:44.644Z,10.80
2022-12-29T01:42:19.272Z,10.90
2022-12-29T01:44:54.958Z,10.80
2022-12-29T01:47:39.857Z,10.90
2022-12-29T01:50:30.693Z,10.90
2022-12-29T01:53:12.604Z,10.90
2022-12-29T01:55:43.615Z,11.00
2022-12-29T01:58:14.152Z,10.90
2022-12-29T02:03:10.282Z,11.00
2022-12-29T02:05:55.967Z,11.00
2022-12-29T02:08:26.656Z,11.00
2022-12-29T02:10:54.447Z,11.00
2022-12-29T02:13:26.008Z,11.00
2022-12-29T02:16:15.622Z,11.00
2022-12-29T02:18:59.539Z,8.10
2022-12-29T02:21:55.135Z,11.00
2022-12-29T02:24:56.573Z,11.10
2022-12-29T02:27:56.415Z,11.10
2022-12-29T02:30:46.425Z,11.10
2022-12-29T02:36:13.423Z,11.20
2022-12-29T02:39:10.858Z,11.20
2022-12-29T02:42:10.985Z,11.20
2022-12-29T02:44:53.352Z,11.20
2022-12-29T02:47:31.026Z,11.10
2022-12-29T02:50:16.017Z,11.10
2022-12-29T02:53:00.296Z,11.10
2022-12-29T02:55:27.278Z,11.00
2022-12-29T02:58:21.765Z,11.00
2022-12-29T03:01:21.916Z,11.00
2022-12-29T03:04:20.054Z,11.10
2022-12-29T03:07:15.974Z,11.00
2022-12-29T03:10:09.861Z,11.10
2022-12-29T03:13:05.497Z,11.10
2022-12-29T03:15:59.060Z,11.10
2022-12-29T03:18:46.014Z,11.10
2022-12-29T03:21:47.394Z,11.10
2022-12-29T03:24:20.755Z,11.10
2022-12-29T03:26:50.270Z,11.20
2022-12-29T03:29:21.131Z,11.20
2022-12-29T03:31:50.725Z,11.20
2022-12-29T03:34:20.739Z,11.30
2022-12-29T03:36:59.468Z,11.20
2022-12-29T03:42:03.719Z,11.40
2022-12-29T03:44:40.004Z,11.40
2022-12-29T03:47:07.746Z,11.40
2022-12-29T03:49:35.109Z,11.40
2022-12-29T03:54:33.595Z,11.40
2022-12-29T04:04:39.435Z,11.50
2022-12-29T04:40:08.829Z,13.00
2022-12-29T05:00:20.052Z,11.50
2022-12-29T05:05:15.745Z,11.40
2022-12-29T05:15:10.085Z,11.40
2022-12-29T05:20:07.456Z,11.40
2022-12-29T05:27:32.768Z,11.40
2022-12-29T05:30:20.554Z,11.40
2022-12-29T05:40:09.763Z,11.40
2022-12-29T06:06:20.824Z,11.50
2022-12-29T07:18:10.301Z,11.70
2022-12-29T07:47:50.119Z,11.70
2022-12-29T08:14:54.166Z,11.30
2022-12-29T08:37:08.287Z,11.20
2022-12-29T08:51:51.480Z,11.10
2022-12-29T09:09:11.951Z,10.80
2022-12-29T09:16:33.507Z,10.80
2022-12-29T09:26:21.975Z,10.90
2022-12-29T09:36:10.000Z,11.00
2022-12-29T09:41:15.736Z,11.20
2022-12-29T09:44:09.662Z,11.20
2022-12-29T09:46:42.302Z,11.20
2022-12-29T09:49:20.621Z,11.20
2022-12-29T09:51:52.038Z,11.20
2022-12-29T09:55:00.075Z,11.30
2022-12-29T09:57:38.938Z,11.20
2022-12-29T10:00:20.999Z,11.10
2022-12-29T10:02:55.918Z,11.20
2022-12-29T10:08:13.996Z,11.40
2022-12-29T10:10:54.697Z,11.50
2022-12-29T10:13:29.458Z,11.50
2022-12-29T10:16:06.341Z,11.40
2022-12-29T10:19:16.917Z,11.40
2022-12-29T10:22:13.407Z,11.40
2022-12-29T10:24:40.747Z,11.40
2022-12-29T10:27:13.331Z,11.30
2022-12-29T10:29:52.109Z,11.40
2022-12-29T10:32:31.177Z,11.30
2022-12-29T10:35:05.845Z,11.20
2022-12-29T10:37:57.464Z,11.20
2022-12-29T10:40:28.864Z,11.30
2022-12-29T10:42:58.017Z,11.20
2022-12-29T10:45:29.924Z,11.20
2022-12-29T10:48:33.344Z,11.20
2022-12-29T10:51:03.014Z,11.10
2022-12-29T10:53:47.053Z,11.20
2022-12-29T10:56:37.103Z,11.20
2022-12-29T10:59:25.070Z,11.20
2022-12-29T11:02:12.740Z,11.30
2022-12-29T11:05:04.934Z,11.30
2022-12-29T11:10:42.258Z,11.30
2022-12-29T11:13:15.959Z,11.40
2022-12-29T11:15:43.915Z,11.40
2022-12-29T11:18:33.652Z,11.40
2022-12-29T11:21:03.727Z,11.50
2022-12-29T11:23:33.742Z,11.40
2022-12-29T11:26:13.140Z,11.40
2022-12-29T11:28:41.105Z,11.40
2022-12-29T11:31:09.092Z,11.50
2022-12-29T11:33:37.544Z,11.50
2022-12-29T11:38:43.249Z,11.50
2022-12-29T11:41:14.487Z,11.50
2022-12-29T11:43:45.463Z,11.50
2022-12-29T11:46:20.399Z,11.50
2022-12-29T11:48:48.826Z,11.50
2022-12-29T11:51:25.421Z,11.40
2022-12-29T11:53:56.785Z,11.50
2022-12-29T11:56:40.360Z,11.40
2022-12-29T11:59:30.798Z,11.40
2022-12-29T12:01:59.587Z,11.50
2022-12-29T12:04:32.116Z,11.60
2022-12-29T12:07:19.331Z,11.50
2022-12-29T12:10:06.693Z,11.50
2022-12-29T12:13:07.827Z,11.40
2022-12-29T12:15:46.035Z,11.50
2022-12-29T12:20:58.626Z,11.50
2022-12-29T12:24:16.079Z,11.50
2022-12-29T12:26:59.175Z,11.50
2022-12-29T12:29:35.150Z,11.40
2022-12-29T12:34:38.207Z,11.40
2022-12-29T12:37:34.225Z,11.30
2022-12-29T12:40:19.655Z,11.40
2022-12-29T12:43:24.307Z,11.40
2022-12-29T12:46:20.513Z,11.40
2022-12-29T12:49:04.728Z,11.40
2022-12-29T12:51:36.961Z,11.40
2022-12-29T12:54:37.407Z,11.40
2022-12-29T12:57:17.763Z,11.40
2022-12-29T13:00:01.369Z,11.40
2022-12-29T13:03:04.433Z,11.40
2022-12-29T13:06:08.498Z,11.40
2022-12-29T13:08:59.013Z,11.40
2022-12-29T13:11:40.505Z,11.40
2022-12-29T13:14:37.493Z,11.50
2022-12-29T13:17:22.890Z,11.50
2022-12-29T13:20:06.547Z,11.50
2022-12-29T13:22:40.218Z,11.50
2022-12-29T13:25:42.927Z,11.50
2022-12-29T13:28:33.386Z,11.50
2022-12-29T13:31:03.108Z,11.50
2022-12-29T13:33:42.487Z,11.40
2022-12-29T13:36:40.563Z,11.40
2022-12-29T13:39:21.169Z,11.40
2022-12-29T13:41:57.922Z,11.40
2022-12-29T13:46:52.684Z,11.40
2022-12-29T13:49:22.773Z,11.40
2022-12-29T13:51:53.519Z,11.30
2022-12-29T13:54:43.980Z,11.30
2022-12-29T13:57:21.431Z,11.40
2022-12-29T14:00:14.192Z,11.30
2022-12-29T14:05:32.159Z,11.20
2022-12-29T14:08:04.704Z,11.20
2022-12-29T14:10:39.227Z,11.20
2022-12-29T14:13:12.064Z,11.20
2022-12-29T14:15:42.259Z,11.20
2022-12-29T14:18:18.979Z,11.20
2022-12-29T14:21:01.058Z,11.20
2022-12-29T14:23:41.039Z,11.20
2022-12-29T14:28:37.140Z,11.20
2022-12-29T14:33:33.652Z,11.20
2022-12-29T14:36:21.373Z,11.20
2022-12-29T14:38:49.442Z,11.10
2022-12-29T14:41:28.242Z,11.10
2022-12-29T14:44:11.060Z,11.00
2022-12-29T14:46:56.987Z,11.00
2022-12-29T14:49:30.720Z,10.90
2022-12-29T14:52:19.443Z,10.90
2022-12-29T14:54:52.549Z,10.90
2022-12-29T14:57:35.276Z,10.90
2022-12-29T15:00:07.599Z,10.90
2022-12-29T15:02:40.784Z,10.90
2022-12-29T15:05:34.860Z,10.90
2022-12-29T15:08:03.301Z,10.90
2022-12-29T15:10:38.107Z,10.90
2022-12-29T15:13:14.816Z,10.90
2022-12-29T15:18:24.787Z,10.90
2022-12-29T15:20:54.781Z,11.00
2022-12-29T15:25:53.974Z,10.90
2022-12-29T15:28:22.258Z,10.70
2022-12-29T15:30:56.842Z,10.80
2022-12-29T15:33:27.233Z,10.80
2022-12-29T15:35:56.715Z,10.80
2022-12-29T15:38:34.539Z,10.80
2022-12-29T15:41:07.380Z,10.80
2022-12-29T15:44:11.768Z,10.80
2022-12-29T15:49:09.385Z,10.80
2022-12-29T15:51:39.138Z,12.20
2022-12-29T15:54:06.958Z,10.70
2022-12-29T15:56:34.354Z,11.90
2022-12-29T15:59:02.751Z,10.70
2022-12-29T16:01:35.042Z,10.70
2022-12-29T16:04:05.656Z,10.60
2022-12-29T16:06:37.400Z,10.60
2022-12-29T16:09:15.669Z,10.60
2022-12-29T16:11:51.586Z,10.60
2022-12-29T16:14:40.086Z,10.60
2022-12-29T16:17:07.293Z,10.60
2022-12-29T16:19:37.597Z,10.60
2022-12-29T16:22:12.131Z,10.60
2022-12-29T16:24:40.905Z,10.60
2022-12-29T16:27:15.076Z,10.60
2022-12-29T16:32:30.385Z,10.60
2022-12-29T16:35:20.545Z,10.50
2022-12-29T16:40:31.868Z,10.50
2022-12-29T16:43:03.378Z,10.30
2022-12-29T16:45:53.187Z,10.50
2022-12-29T16:48:22.487Z,10.50
2022-12-29T16:50:50.441Z,10.50
2022-12-29T16:53:30.393Z,10.50
2022-12-29T16:56:01.466Z,10.50
2022-12-29T16:58:31.584Z,10.50
2022-12-29T17:01:01.127Z,10.50
2022-12-29T17:03:39.627Z,10.50
2022-12-29T17:08:41.901Z,10.50
2022-12-29T17:11:37.996Z,10.50
2022-12-29T17:36:11.538Z,10.40
2022-12-29T17:38:38.312Z,10.40
2022-12-29T17:43:36.996Z,10.40
2022-12-29T17:46:06.846Z,10.40
2022-12-29T17:48:34.118Z,10.40
2022-12-29T17:53:29.906Z,10.40
2022-12-29T17:58:28.647Z,8.50
2022-12-29T18:00:58.125Z,10.40
2022-12-29T18:03:27.131Z,10.40
2022-12-29T18:10:50.703Z,10.40
2022-12-29T18:13:25.162Z,10.40
2022-12-29T18:15:53.496Z,10.30
2022-12-29T18:18:26.182Z,10.40
2022-12-29T18:20:55.142Z,10.30
2022-12-29T18:23:24.672Z,10.30
2022-12-29T18:26:07.668Z,10.20
2022-12-29T18:31:02.071Z,10.20
2022-12-29T18:33:29.831Z,10.00
2022-12-29T18:36:04.852Z,10.20
2022-12-29T18:38:31.896Z,10.10
2022-12-29T18:40:59.888Z,10.10
2022-12-29T18:50:53.110Z,10.00
2022-12-29T18:53:22.775Z,10.00
2022-12-29T19:00:44.693Z,10.00
2022-12-29T19:03:14.205Z,10.00
2022-12-29T19:05:43.262Z,10.00
2022-12-29T19:08:11.059Z,9.90
2022-12-29T19:15:40.134Z,9.70
2022-12-29T19:18:42.494Z,9.60
2022-12-29T19:20:56.807Z,9.60
2022-12-29T19:23:26.351Z,9.40
2022-12-29T19:25:54.763Z,9.30
2022-12-29T19:28:26.883Z,9.20
2022-12-29T19:30:58.175Z,9.00
2022-12-29T19:40:48.766Z,8.70
2022-12-29T19:45:44.844Z,8.50
2022-12-29T19:48:14.994Z,8.40
2022-12-29T19:50:41.782Z,8.40
2022-12-29T19:53:08.358Z,8.40
2022-12-29T19:55:34.988Z,8.30
2022-12-29T20:55:13.304Z,8.00
2022-12-29T21:02:58.063Z,8.00
2022-12-29T21:07:53.855Z,8.00
2022-12-29T21:15:15.843Z,7.90
2022-12-29T21:17:43.889Z,8.00
2022-12-29T21:20:19.809Z,7.90
2022-12-29T21:22:48.158Z,7.90
2022-12-29T21:32:40.933Z,7.90
2022-12-29T21:35:09.058Z,7.90
2022-12-29T21:37:36.208Z,7.90
2022-12-29T21:53:01.049Z,7.90
2022-12-29T22:14:29.788Z,7.90
2022-12-29T22:43:55.146Z,8.00
2022-12-29T22:56:13.259Z,8.10
2022-12-29T22:58:40.888Z,8.00
2022-12-29T23:03:34.937Z,7.90
2022-12-29T23:06:04.211Z,8.10
2022-12-29T23:08:36.460Z,8.10
2022-12-29T23:11:04.776Z,8.10
2022-12-29T23:15:58.712Z,8.10
2022-12-29T23:18:26.034Z,8.10
2022-12-29T23:23:48.177Z,8.00
2022-12-29T23:31:10.473Z,8.00
2022-12-29T23:36:04.743Z,8.00
2022-12-29T23:48:19.823Z,8.00
2022-12-29T23:55:42.938Z,7.90
2022-12-29T23:58:10.244Z,8.00
